Time;durP1;ratioP1;P1;durP2;ratioP2;P2;SDS_P1;SDS_P2;PMS_P1;PMS_P2;Temp;Humidity;BMP_temperature;BMP_pressure;BME280_temperature;BME280_humidity;BME280_pressure;Samples;Min_cycle;Max_cycle;Signal;HPM_P1;HPM_P2
2023/10/09 00:01:38;;;;;;;13.52;3.70;;;11.60;87.10;;;;;;2092534;28;20220;-86
2023/10/09 00:02:43;;;;;;;14.05;4.10;;;11.60;86.90;;;;;;2091060;28;20227;-85
2023/10/09 00:03:53;;;;;;;16.88;4.63;;;11.50;87.50;;;;;;2090449;28;20220;-86
2023/10/09 00:04:56;;;;;;;13.35;4.28;;;11.50;88.40;;;;;;2087978;28;20215;-86
2023/10/09 00:05:58;;;;;;;15.52;3.97;;;11.40;89.00;;;;;;2085489;28;20223;-86
2023/10/09 00:06:59;;;;;;;12.60;4.57;;;11.50;89.30;;;;;;2074254;28;20240;-85
2023/10/09 00:08:03;;;;;;;13.50;4.55;;;11.40;89.20;;;;;;2073909;28;20421;-85
2023/10/09 00:09:29;;;;;;;16.60;5.03;;;11.40;89.50;;;;;;2076154;28;20225;-86
2023/10/09 00:10:35;;;;;;;15.32;4.07;;;11.40;90.20;;;;;;2077562;28;20291;-85
2023/10/09 00:11:41;;;;;;;11.23;3.75;;;11.30;90.60;;;;;;2077361;28;20313;-85
2023/10/09 00:12:43;;;;;;;15.68;4.28;;;11.30;90.80;;;;;;2079085;28;20224;-85
2023/10/09 00:13:52;;;;;;;15.80;3.78;;;11.30;90.80;;;;;;2076528;28;20224;-85
2023/10/09 00:14:55;;;;;;;15.10;4.00;;;11.30;90.70;;;;;;2077045;28;20835;-85
2023/10/09 00:16:01;;;;;;;13.02;3.83;;;11.30;90.70;;;;;;2077765;28;20224;-85
2023/10/09 00:17:24;;;;;;;13.05;4.43;;;11.30;90.50;;;;;;2085927;28;20216;-82
2023/10/09 00:18:29;;;;;;;12.85;4.18;;;11.30;90.40;;;;;;2085757;28;20296;-85
2023/10/09 00:19:33;;;;;;;15.55;4.88;;;11.40;90.20;;;;;;2091635;28;20241;-85
2023/10/09 00:20:42;;;;;;;11.55;3.55;;;11.30;90.30;;;;;;2090424;28;20238;-85
2023/10/09 00:21:47;;;;;;;15.18;4.32;;;11.40;90.80;;;;;;2089701;28;20216;-84
2023/10/09 00:22:48;;;;;;;11.80;3.53;;;11.40;90.70;;;;;;2090976;28;20216;-85
2023/10/09 00:23:53;;;;;;;13.00;4.10;;;11.40;89.50;;;;;;2091823;28;20688;-85
2023/10/09 00:25:11;;;;;;;13.70;4.30;;;11.40;90.00;;;;;;2084221;28;20701;-85
2023/10/09 00:26:19;;;;;;;15.52;3.78;;;11.30;88.80;;;;;;2072399;28;20248;-85
2023/10/09 00:27:21;;;;;;;15.00;3.97;;;11.40;87.60;;;;;;2084754;28;20199;-85
2023/10/09 00:28:23;;;;;;;13.73;3.75;;;11.40;87.60;;;;;;2085219;28;20288;-85
2023/10/09 00:29:26;;;;;;;15.48;4.55;;;11.40;87.50;;;;;;2080667;28;20248;-85
2023/10/09 00:30:29;;;;;;;10.80;3.88;;;11.40;87.70;;;;;;2085692;28;20310;-85
2023/10/09 00:31:33;;;;;;;13.15;4.35;;;11.50;87.80;;;;;;2078299;28;20609;-85
2023/10/09 00:32:37;;;;;;;14.23;3.88;;;11.50;87.30;;;;;;2077000;28;20224;-85
2023/10/09 00:33:37;;;;;;;11.70;3.95;;;11.40;87.60;;;;;;2073495;28;20229;-85
2023/10/09 00:34:41;;;;;;;11.63;4.47;;;11.40;88.70;;;;;;2082846;28;20236;-85
2023/10/09 00:36:52;;;;;;;13.07;4.03;;;11.40;89.00;;;;;;2087624;28;20224;-85
2023/10/09 00:37:57;;;;;;;12.52;3.70;;;11.50;89.40;;;;;;2090631;28;20224;-84
2023/10/09 00:39:08;;;;;;;14.90;4.30;;;11.50;90.10;;;;;;2079498;28;20237;-86
2023/10/09 00:40:20;;;;;;;9.77;3.83;;;11.50;90.10;;;;;;2084951;28;20228;-85
2023/10/09 00:41:24;;;;;;;14.68;4.18;;;11.40;90.30;;;;;;2091707;28;20309;-84
2023/10/09 00:42:34;;;;;;;14.65;3.80;;;11.40;90.60;;;;;;2084694;28;20684;-84
2023/10/09 00:43:36;;;;;;;12.93;3.92;;;11.40;90.80;;;;;;2077690;28;20312;-83
2023/10/09 00:44:40;;;;;;;17.83;4.07;;;11.40;90.70;;;;;;2073752;28;20239;-84
2023/10/09 00:45:44;;;;;;;14.85;3.78;;;11.40;90.50;;;;;;2067033;28;20246;-85
2023/10/09 00:46:47;;;;;;;14.93;3.75;;;11.40;90.70;;;;;;2072954;28;20225;-84
2023/10/09 00:47:48;;;;;;;11.18;3.53;;;11.40;90.50;;;;;;2083619;28;20220;-85
2023/10/09 00:48:55;;;;;;;13.73;3.95;;;11.40;90.80;;;;;;2088663;28;20703;-86
2023/10/09 00:50:08;;;;;;;10.68;3.67;;;11.40;90.80;;;;;;2090967;28;20224;-85
2023/10/09 00:51:18;;;;;;;11.88;3.90;;;11.30;90.90;;;;;;2082087;28;20240;-84
2023/10/09 00:52:29;;;;;;;11.90;3.80;;;11.30;91.20;;;;;;2083795;28;20675;-85
2023/10/09 00:53:33;;;;;;;15.63;3.92;;;11.30;91.50;;;;;;2095127;28;20231;-86
2023/10/09 00:54:41;;;;;;;16.48;3.97;;;11.30;91.30;;;;;;2094209;28;20214;-85
2023/10/09 00:55:45;;;;;;;11.02;3.90;;;11.30;91.30;;;;;;2080148;28;20298;-84
2023/10/09 00:56:57;;;;;;;10.80;3.40;;;11.30;91.70;;;;;;2094192;28;20212;-84
2023/10/09 00:57:58;;;;;;;18.02;4.20;;;11.40;91.90;;;;;;2082154;28;20606;-85
2023/10/09 00:59:10;;;;;;;10.85;3.67;;;11.40;91.90;;;;;;2077504;28;20244;-86
2023/10/09 01:00:31;;;;;;;11.73;3.58;;;11.50;92.10;;;;;;2075876;28;20228;-85
2023/10/09 01:01:36;;;;;;;13.50;3.97;;;11.40;92.00;;;;;;2078966;28;20313;-85
2023/10/09 01:02:41;;;;;;;11.68;3.55;;;11.50;92.10;;;;;;2085749;28;20255;-84
2023/10/09 01:03:45;;;;;;;10.18;3.78;;;11.40;92.20;;;;;;2077516;28;20209;-84
2023/10/09 01:04:46;;;;;;;12.93;3.70;;;11.40;92.00;;;;;;2077467;28;20281;-85
2023/10/09 01:07:15;;;;;;;11.38;3.75;;;11.50;92.30;;;;;;2089569;28;20211;-85
2023/10/09 01:08:24;;;;;;;13.18;4.15;;;11.50;92.50;;;;;;2084389;28;20196;-84
2023/10/09 01:09:28;;;;;;;14.93;3.95;;;11.50;92.80;;;;;;2081583;28;20216;-85
2023/10/09 01:10:34;;;;;;;10.55;4.22;;;11.50;92.70;;;;;;2091712;28;20224;-85
2023/10/09 01:11:38;;;;;;;11.85;4.00;;;11.50;92.90;;;;;;2090825;28;20271;-84
2023/10/09 01:12:43;;;;;;;11.32;3.33;;;11.50;93.10;;;;;;2083113;28;20240;-85
2023/10/09 01:14:55;;;;;;;14.02;4.32;;;11.40;93.60;;;;;;2081056;28;20224;-85
2023/10/09 01:15:58;;;;;;;13.27;3.80;;;11.40;93.70;;;;;;2091547;28;20224;-84
2023/10/09 01:17:00;;;;;;;13.63;3.65;;;11.50;93.70;;;;;;2081605;28;20284;-85
2023/10/09 01:18:02;;;;;;;10.18;3.17;;;11.40;93.80;;;;;;2083200;28;20612;-85
2023/10/09 01:19:13;;;;;;;10.85;3.35;;;11.30;94.00;;;;;;2085768;28;20620;-84
2023/10/09 01:20:16;;;;;;;13.82;3.50;;;11.40;94.10;;;;;;2077954;28;20623;-84
2023/10/09 01:21:21;;;;;;;10.25;3.35;;;11.30;94.20;;;;;;2077203;28;20203;-85
2023/10/09 01:22:22;;;;;;;12.32;3.60;;;11.30;94.20;;;;;;2074863;28;20804;-85
2023/10/09 01:23:23;;;;;;;13.43;2.83;;;11.30;94.30;;;;;;2084074;28;20233;-85
2023/10/09 01:24:26;;;;;;;13.15;3.55;;;11.30;94.10;;;;;;2089452;28;20664;-85
2023/10/09 01:25:41;;;;;;;9.52;3.35;;;11.50;93.80;;;;;;2079248;28;20227;-85
2023/10/09 01:26:54;;;;;;;9.85;3.10;;;11.40;93.70;;;;;;2075133;28;20217;-84
2023/10/09 01:27:56;;;;;;;9.13;3.00;;;11.40;93.80;;;;;;2081855;28;20296;-85
2023/10/09 01:28:59;;;;;;;9.88;3.20;;;11.40;93.50;;;;;;2086842;28;20834;-85
2023/10/09 01:30:00;;;;;;;11.98;3.22;;;11.60;93.40;;;;;;2075489;28;20221;-85
2023/10/09 01:31:00;;;;;;;8.63;3.17;;;11.60;93.20;;;;;;2075658;28;20229;-85
2023/10/09 01:32:01;;;;;;;10.27;3.27;;;11.50;93.30;;;;;;2084424;28;20188;-85
2023/10/09 01:33:13;;;;;;;13.70;3.17;;;11.60;93.40;;;;;;2083502;28;20204;-84
2023/10/09 01:34:14;;;;;;;8.13;2.65;;;11.60;93.20;;;;;;2087878;28;20187;-85
2023/10/09 01:35:21;;;;;;;13.23;3.38;;;11.60;93.10;;;;;;2086407;28;20259;-85
2023/10/09 01:36:31;;;;;;;13.05;3.22;;;11.60;93.20;;;;;;2074624;28;20233;-85
2023/10/09 01:37:36;;;;;;;12.88;3.33;;;11.70;93.10;;;;;;2081553;28;20483;-85
2023/10/09 01:38:44;;;;;;;11.57;2.88;;;11.70;92.90;;;;;;2083376;28;20744;-85
2023/10/09 01:39:49;;;;;;;8.68;3.33;;;11.60;93.10;;;;;;2082315;28;20212;-85
2023/10/09 01:40:51;;;;;;;14.60;3.38;;;11.60;93.50;;;;;;2079212;28;20223;-85
2023/10/09 01:41:58;;;;;;;14.68;3.53;;;11.60;93.50;;;;;;2068411;28;20300;-84
2023/10/09 01:42:59;;;;;;;7.65;3.20;;;11.60;93.40;;;;;;2078230;28;20666;-84
2023/10/09 01:44:10;;;;;;;13.93;3.10;;;11.60;93.40;;;;;;2073444;28;20373;-85
2023/10/09 01:45:26;;;;;;;11.73;3.30;;;11.60;93.40;;;;;;2067609;28;20236;-85
2023/10/09 01:46:27;;;;;;;13.25;3.63;;;11.70;93.40;;;;;;2084282;28;20217;-85
2023/10/09 01:47:31;;;;;;;8.00;3.13;;;11.70;93.00;;;;;;2091818;28;20312;-85
2023/10/09 01:48:37;;;;;;;10.38;3.10;;;11.80;92.80;;;;;;2084443;28;20227;-85
2023/10/09 01:49:41;;;;;;;11.45;3.22;;;11.70;92.80;;;;;;2076456;28;20228;-85
2023/10/09 01:50:42;;;;;;;7.57;3.03;;;11.70;92.80;;;;;;2081129;28;20216;-85
2023/10/09 01:51:42;;;;;;;11.70;3.30;;;11.70;93.10;;;;;;2091286;28;20248;-83
2023/10/09 01:52:43;;;;;;;10.07;2.87;;;11.70;92.90;;;;;;2096384;28;20320;-83
2023/10/09 01:53:47;;;;;;;8.67;3.13;;;11.80;92.20;;;;;;2090303;28;20233;-83
2023/10/09 01:54:51;;;;;;;13.32;3.25;;;11.80;92.30;;;;;;2081669;28;20240;-85
2023/10/09 01:55:55;;;;;;;14.48;3.20;;;11.80;92.10;;;;;;2080635;28;20219;-85
2023/10/09 01:56:56;;;;;;;9.45;2.92;;;11.80;91.90;;;;;;2084737;28;20225;-85
2023/10/09 01:57:58;;;;;;;7.72;2.85;;;11.80;91.00;;;;;;2086026;28;20225;-85
2023/10/09 01:59:05;;;;;;;8.52;2.70;;;11.80;91.70;;;;;;2084442;28;20257;-85
2023/10/09 02:00:07;;;;;;;7.50;2.60;;;11.80;91.60;;;;;;2087001;28;20224;-84
2023/10/09 02:01:09;;;;;;;9.23;2.47;;;11.80;91.60;;;;;;2078208;28;20181;-85
2023/10/09 02:02:26;;;;;;;12.40;3.28;;;11.80;91.80;;;;;;2085033;28;20192;-85
2023/10/09 02:03:29;;;;;;;14.20;3.78;;;11.80;92.10;;;;;;2085388;28;20220;-85
2023/10/09 02:04:29;;;;;;;8.88;2.80;;;11.80;92.00;;;;;;2080933;28;20299;-83
2023/10/09 02:05:33;;;;;;;7.07;2.63;;;11.80;92.40;;;;;;2072167;28;20685;-85
2023/10/09 02:06:37;;;;;;;9.15;2.80;;;11.80;92.60;;;;;;2085174;28;20212;-86
2023/10/09 02:07:44;;;;;;;10.02;2.88;;;11.80;92.40;;;;;;2085362;28;20232;-86
2023/10/09 02:08:49;;;;;;;9.30;3.30;;;11.80;92.40;;;;;;2077536;28;20307;-84
2023/10/09 02:09:50;;;;;;;8.40;3.13;;;11.80;92.40;;;;;;2080171;28;20763;-85
2023/10/09 02:10:55;;;;;;;10.13;3.00;;;11.90;92.30;;;;;;2084278;28;20216;-85
2023/10/09 02:11:55;;;;;;;11.63;3.20;;;11.90;92.10;;;;;;2081162;28;20264;-86
2023/10/09 02:13:06;;;;;;;8.93;2.93;;;11.90;91.80;;;;;;2085541;28;20212;-85
2023/10/09 02:14:19;;;;;;;10.45;3.00;;;11.90;91.80;;;;;;2074472;28;20217;-84
2023/10/09 02:15:40;;;;;;;12.07;3.08;;;11.90;91.90;;;;;;2080082;28;20191;-85
2023/10/09 02:16:41;;;;;;;8.95;2.95;;;12.00;92.10;;;;;;2081006;28;20221;-85
2023/10/09 02:18:00;;;;;;;8.85;2.63;;;11.90;92.10;;;;;;2079193;28;20212;-84
2023/10/09 02:19:07;;;;;;;9.40;2.72;;;11.90;92.00;;;;;;2085313;28;20236;-86
2023/10/09 02:20:17;;;;;;;9.55;2.97;;;11.90;91.90;;;;;;2082150;28;20227;-84
2023/10/09 02:21:32;;;;;;;9.07;3.05;;;11.80;92.20;;;;;;2075806;28;20593;-84
2023/10/09 02:22:34;;;;;;;7.95;3.08;;;11.80;92.70;;;;;;2080583;28;20726;-85
2023/10/09 02:23:46;;;;;;;11.90;3.35;;;11.80;92.70;;;;;;2087771;28;20216;-84
2023/10/09 02:25:53;;;;;;;8.80;3.22;;;11.80;92.40;;;;;;2082695;28;20255;-85
2023/10/09 02:27:55;;;;;;;8.40;2.70;;;11.70;92.40;;;;;;2089684;28;20223;-85
2023/10/09 02:28:58;;;;;;;9.52;2.58;;;11.80;92.00;;;;;;2080562;28;20217;-85
2023/10/09 02:29:59;;;;;;;11.50;2.60;;;11.90;89.00;;;;;;2083177;28;20721;-85
2023/10/09 02:31:02;;;;;;;13.50;3.30;;;11.90;89.10;;;;;;2084297;28;20299;-86
2023/10/09 02:32:13;;;;;;;7.90;2.50;;;12.00;90.30;;;;;;2082594;28;20216;-84
2023/10/09 02:33:27;;;;;;;14.75;3.10;;;12.00;90.30;;;;;;2089405;28;20233;-86
2023/10/09 02:34:29;;;;;;;10.15;2.50;;;12.10;90.30;;;;;;2074981;28;20228;-85
2023/10/09 02:35:42;;;;;;;7.22;2.72;;;12.20;87.60;;;;;;2084312;28;20238;-86
2023/10/09 02:36:49;;;;;;;9.32;2.75;;;12.20;85.00;;;;;;2080969;28;20231;-85
2023/10/09 02:37:49;;;;;;;7.85;2.80;;;12.20;87.70;;;;;;2071752;28;20221;-85
2023/10/09 02:38:53;;;;;;;13.20;2.70;;;12.20;87.20;;;;;;2073783;28;20224;-85
2023/10/09 02:39:54;;;;;;;8.35;2.78;;;12.20;85.50;;;;;;2081616;28;20221;-86
2023/10/09 02:42:19;;;;;;;10.25;2.75;;;12.20;86.20;;;;;;2076819;28;20220;-84
2023/10/09 02:43:19;;;;;;;8.38;2.38;;;12.20;84.20;;;;;;2083328;28;20195;-85
2023/10/09 02:44:26;;;;;;;11.48;2.72;;;12.30;85.60;;;;;;2077318;28;20320;-86
2023/10/09 02:45:34;;;;;;;14.70;3.00;;;12.30;83.80;;;;;;2087051;28;20252;-86
2023/10/09 02:46:35;;;;;;;7.40;2.88;;;12.30;85.20;;;;;;2095529;28;20221;-85
2023/10/09 02:47:39;;;;;;;8.80;2.30;;;12.40;85.20;;;;;;2083677;28;20225;-86
2023/10/09 02:48:45;;;;;;;9.32;2.58;;;12.40;85.20;;;;;;2077285;28;20221;-85
2023/10/09 02:49:50;;;;;;;11.30;2.75;;;12.40;80.70;;;;;;2077695;28;20598;-86
2023/10/09 02:50:50;;;;;;;7.10;2.40;;;12.50;83.70;;;;;;2077590;28;20228;-86
2023/10/09 02:51:53;;;;;;;13.87;4.10;;;12.50;81.90;;;;;;2076305;28;20303;-84
2023/10/09 02:52:59;;;;;;;5.90;2.40;;;12.60;82.60;;;;;;2082448;28;20235;-85
2023/10/09 02:54:18;;;;;;;11.05;2.97;;;12.60;83.30;;;;;;2084660;28;20219;-84
2023/10/09 02:55:26;;;;;;;9.45;2.35;;;12.60;83.00;;;;;;2095857;28;20618;-83
2023/10/09 02:56:36;;;;;;;11.20;2.53;;;12.60;80.00;;;;;;2090997;28;20886;-84
2023/10/09 02:57:38;;;;;;;8.35;2.45;;;12.60;79.80;;;;;;2087407;28;20259;-85
2023/10/09 02:58:40;;;;;;;10.93;3.10;;;12.80;80.30;;;;;;2079131;28;20288;-85
2023/10/09 02:59:44;;;;;;;11.27;2.60;;;12.80;80.80;;;;;;2080862;28;20212;-86
2023/10/09 03:00:46;;;;;;;12.77;2.63;;;12.80;81.10;;;;;;2075985;28;20206;-84
2023/10/09 03:01:48;;;;;;;7.70;2.30;;;12.90;78.30;;;;;;2080263;28;20227;-85
2023/10/09 03:02:50;;;;;;;14.30;3.33;;;13.00;76.00;;;;;;2083451;28;20634;-85
2023/10/09 03:03:51;;;;;;;9.52;2.70;;;13.10;75.50;;;;;;2077950;28;20221;-86
2023/10/09 03:04:55;;;;;;;12.30;2.63;;;13.20;76.30;;;;;;2076347;28;20612;-84
2023/10/09 03:05:55;;;;;;;10.52;2.47;;;13.10;75.80;;;;;;2087143;28;20216;-85
2023/10/09 03:06:57;;;;;;;9.20;2.77;;;13.30;74.50;;;;;;2086424;28;20741;-85
2023/10/09 03:07:59;;;;;;;10.57;2.53;;;13.30;76.80;;;;;;2077717;28;20676;-86
2023/10/09 03:09:01;;;;;;;13.00;2.72;;;13.30;75.50;;;;;;2078803;28;20227;-84
2023/10/09 03:10:09;;;;;;;9.88;2.55;;;13.30;73.50;;;;;;2077684;28;20263;-85
2023/10/09 03:11:13;;;;;;;10.30;2.65;;;13.30;71.60;;;;;;2074424;28;20186;-85
2023/10/09 03:12:13;;;;;;;9.77;2.60;;;13.40;73.50;;;;;;2077091;28;20196;-85
2023/10/09 03:13:19;;;;;;;7.17;2.87;;;13.40;70.80;;;;;;2077216;28;20709;-86
2023/10/09 03:14:21;;;;;;;9.30;2.50;;;13.50;69.80;;;;;;2081529;28;20192;-84
2023/10/09 03:15:22;;;;;;;9.60;2.72;;;13.50;69.30;;;;;;2087383;28;20297;-86
2023/10/09 03:16:23;;;;;;;8.68;3.15;;;13.50;68.80;;;;;;2078259;28;20564;-84
2023/10/09 03:17:23;;;;;;;11.37;2.50;;;13.70;68.20;;;;;;2075459;28;20593;-85
2023/10/09 03:18:24;;;;;;;7.17;2.70;;;13.70;67.90;;;;;;2075203;28;20715;-85
2023/10/09 03:19:28;;;;;;;6.53;2.53;;;13.80;67.30;;;;;;2072745;28;20295;-85
2023/10/09 03:20:30;;;;;;;10.07;2.80;;;14.00;66.30;;;;;;2068475;28;20296;-85
2023/10/09 03:21:31;;;;;;;10.82;3.00;;;14.10;65.80;;;;;;2083249;28;20240;-85
2023/10/09 03:22:31;;;;;;;13.60;2.83;;;14.00;66.10;;;;;;2077038;28;20308;-85
2023/10/09 03:23:34;;;;;;;11.70;2.43;;;14.10;66.80;;;;;;2080332;28;20232;-85
2023/10/09 03:24:35;;;;;;;10.02;2.75;;;14.20;65.20;;;;;;2085669;28;20379;-85
2023/10/09 03:25:37;;;;;;;9.73;2.42;;;14.20;64.40;;;;;;2085009;28;20274;-86
2023/10/09 03:26:38;;;;;;;9.20;2.58;;;14.20;64.10;;;;;;2073780;28;20772;-85
2023/10/09 03:27:46;;;;;;;9.03;2.70;;;14.20;63.80;;;;;;2075766;28;20244;-85
2023/10/09 03:28:48;;;;;;;12.15;2.85;;;14.40;63.00;;;;;;2070494;28;20272;-85
2023/10/09 03:29:53;;;;;;;10.13;2.80;;;14.40;62.90;;;;;;2072027;28;20229;-85
2023/10/09 03:30:54;;;;;;;9.77;2.92;;;14.50;62.40;;;;;;2092569;28;20223;-85
2023/10/09 03:32:00;;;;;;;11.70;2.70;;;14.50;62.00;;;;;;2086641;28;20232;-85
2023/10/09 03:33:02;;;;;;;11.32;2.70;;;14.70;61.80;;;;;;2069771;28;20228;-85
2023/10/09 03:34:08;;;;;;;10.38;2.55;;;14.60;62.20;;;;;;2079986;28;20228;-85
2023/10/09 03:35:11;;;;;;;15.18;2.90;;;14.70;61.90;;;;;;2086428;28;20180;-85
2023/10/09 03:36:16;;;;;;;9.95;2.60;;;14.70;60.80;;;;;;2085240;28;20184;-87
2023/10/09 03:37:33;;;;;;;11.95;2.72;;;14.90;60.20;;;;;;2083141;28;20279;-86
2023/10/09 03:38:34;;;;;;;9.15;2.65;;;14.80;59.60;;;;;;2075032;28;20296;-85
2023/10/09 03:39:41;;;;;;;13.73;3.20;;;14.80;61.30;;;;;;2079960;28;20232;-85
2023/10/09 03:40:43;;;;;;;10.43;2.60;;;14.80;60.20;;;;;;2075282;28;20463;-86
2023/10/09 03:41:46;;;;;;;10.95;2.45;;;14.80;59.90;;;;;;2059822;28;20287;-86
2023/10/09 03:42:48;;;;;;;12.63;3.13;;;14.80;59.60;;;;;;2066623;28;20224;-85
2023/10/09 03:43:49;;;;;;;11.32;2.83;;;15.00;59.20;;;;;;2078371;28;20224;-85
2023/10/09 03:44:53;;;;;;;12.57;3.13;;;14.90;61.20;;;;;;2075806;28;20641;-86
2023/10/09 03:45:54;;;;;;;8.80;2.30;;;15.00;59.70;;;;;;2066319;28;20463;-86
2023/10/09 03:46:55;;;;;;;9.33;3.07;;;14.90;61.50;;;;;;2074845;28;20462;-85
2023/10/09 03:48:11;;;;;;;14.40;3.20;;;15.00;61.80;;;;;;2078795;28;20237;-85
2023/10/09 03:49:13;;;;;;;12.77;3.28;;;15.00;59.70;;;;;;2089588;28;20444;-85
2023/10/09 03:51:33;;;;;;;10.02;2.65;;;15.10;59.10;;;;;;2091891;28;20501;-85
2023/10/09 03:52:35;;;;;;;13.30;2.77;;;15.30;58.40;;;;;;2100256;28;20207;-85
2023/10/09 03:53:36;;;;;;;10.48;2.80;;;15.30;57.80;;;;;;2090486;28;20223;-85
2023/10/09 03:54:38;;;;;;;11.25;2.80;;;15.40;58.30;;;;;;2079089;28;20324;-85
2023/10/09 03:55:39;;;;;;;8.35;2.50;;;15.30;58.10;;;;;;2078532;28;20278;-85
2023/10/09 03:56:40;;;;;;;13.87;2.80;;;15.30;58.00;;;;;;2094122;28;20224;-85
2023/10/09 03:57:40;;;;;;;13.10;2.63;;;15.30;57.80;;;;;;2081756;28;20462;-85
2023/10/09 03:58:44;;;;;;;11.07;3.37;;;15.30;58.20;;;;;;2084606;28;20306;-85
2023/10/09 03:59:46;;;;;;;10.07;2.50;;;15.20;59.70;;;;;;2093046;28;20244;-85
2023/10/09 04:00:49;;;;;;;12.20;2.40;;;15.20;59.60;;;;;;2090045;28;20215;-85
2023/10/09 04:01:52;;;;;;;7.63;2.45;;;15.30;60.60;;;;;;2083622;28;20495;-86
2023/10/09 04:02:56;;;;;;;11.47;3.43;;;15.30;61.80;;;;;;2085502;28;20216;-86
2023/10/09 04:03:59;;;;;;;16.27;2.83;;;15.20;61.60;;;;;;2076443;28;20895;-85
2023/10/09 04:05:00;;;;;;;11.00;2.90;;;15.10;62.80;;;;;;2071182;28;20232;-85
2023/10/09 04:06:01;;;;;;;11.83;2.50;;;15.10;61.30;;;;;;2085122;28;20239;-84
2023/10/09 04:07:02;;;;;;;12.67;2.90;;;15.10;63.80;;;;;;2093087;28;20206;-86
2023/10/09 04:08:11;;;;;;;10.07;2.67;;;15.00;63.20;;;;;;2082762;28;20255;-86
2023/10/09 04:11:36;;;;;;;8.67;2.40;;;14.80;64.50;;;;;;2085174;28;20480;-84
2023/10/09 04:12:39;;;;;;;11.98;2.78;;;14.80;65.50;;;;;;2088626;28;20487;-85
2023/10/09 04:13:40;;;;;;;9.20;3.10;;;14.70;65.50;;;;;;2073328;28;20229;-84
2023/10/09 04:14:50;;;;;;;14.47;3.13;;;14.70;67.10;;;;;;2083946;28;20545;-86
2023/10/09 04:15:53;;;;;;;10.55;3.25;;;14.50;71.30;;;;;;2074243;28;20233;-86
2023/10/09 04:17:04;;;;;;;6.90;2.55;;;14.40;72.10;;;;;;2078401;28;20221;-86
2023/10/09 04:18:06;;;;;;;11.27;3.45;;;14.30;71.40;;;;;;2081282;28;20224;-83
2023/10/09 04:19:11;;;;;;;10.77;3.00;;;14.30;71.00;;;;;;2072992;28;20219;-83
2023/10/09 04:20:50;;;;;;;10.05;2.63;;;14.30;71.00;;;;;;2086327;28;20216;-86
2023/10/09 04:21:35;;;;;;;8.65;2.47;;;14.20;71.50;;;;;;2092930;28;20223;-86
2023/10/09 04:22:49;;;;;;;15.07;2.75;;;14.30;73.30;;;;;;2084906;28;20250;-85
2023/10/09 04:25:25;;;;;;;15.02;3.13;;;14.20;70.60;;;;;;2087993;28;20230;-85
2023/10/09 04:26:25;;;;;;;7.68;2.75;;;14.20;69.00;;;;;;2085814;28;20278;-84
2023/10/09 04:27:35;;;;;;;11.03;3.10;;;14.30;68.50;;;;;;2087262;28;20232;-85
2023/10/09 04:28:37;;;;;;;12.32;2.33;;;14.30;67.10;;;;;;2088883;28;20291;-84
2023/10/09 04:29:38;;;;;;;9.65;2.50;;;14.40;67.50;;;;;;2091683;28;20222;-85
2023/10/09 04:31:02;;;;;;;16.70;3.50;;;14.40;66.30;;;;;;2084508;28;20228;-86
2023/10/09 04:32:05;;;;;;;11.00;2.63;;;14.50;66.00;;;;;;2081879;28;20300;-86
2023/10/09 04:34:34;;;;;;;11.60;2.97;;;14.50;64.30;;;;;;2085708;28;20212;-85
2023/10/09 04:35:38;;;;;;;6.78;2.45;;;14.70;64.50;;;;;;2088148;28;20299;-85
2023/10/09 04:36:49;;;;;;;10.10;2.50;;;14.90;62.70;;;;;;2086980;28;20244;-83
2023/10/09 04:38:00;;;;;;;10.65;2.92;;;14.80;62.50;;;;;;2083630;28;20208;-86
2023/10/09 04:40:12;;;;;;;13.10;3.13;;;14.90;61.70;;;;;;2086777;28;20264;-85
2023/10/09 04:41:27;;;;;;;7.78;2.65;;;14.90;61.30;;;;;;2093102;28;20267;-86
2023/10/09 04:42:36;;;;;;;9.43;2.72;;;15.00;60.70;;;;;;2082595;28;20324;-85
2023/10/09 04:43:43;;;;;;;11.88;2.53;;;15.00;59.90;;;;;;2086768;28;20219;-86
2023/10/09 04:45:18;;;;;;;13.38;3.25;;;15.10;59.80;;;;;;2091061;28;20221;-86
2023/10/09 04:46:23;;;;;;;14.15;3.20;;;15.20;59.90;;;;;;2080655;28;20248;-84
2023/10/09 04:47:25;;;;;;;12.38;2.75;;;15.20;59.00;;;;;;2077719;28;20228;-85
2023/10/09 04:48:38;;;;;;;8.87;2.97;;;15.20;58.40;;;;;;2085984;28;20228;-86
2023/10/09 04:52:18;;;;;;;12.05;2.65;;;15.30;57.80;;;;;;2073046;28;20663;-85
2023/10/09 04:54:38;;;;;;;10.43;2.90;;;15.50;57.20;;;;;;2081970;28;20199;-85
2023/10/09 04:55:44;;;;;;;8.77;2.83;;;15.60;56.60;;;;;;2080201;28;20272;-85
2023/10/09 04:56:53;;;;;;;11.27;3.23;;;15.60;57.30;;;;;;2077623;28;20217;-84
2023/10/09 04:58:08;;;;;;;10.00;3.17;;;15.60;56.30;;;;;;2075117;28;20462;-85
2023/10/09 04:59:09;;;;;;;14.02;3.25;;;15.60;56.10;;;;;;2082163;28;20518;-86
2023/10/09 05:01:36;;;;;;;11.43;2.87;;;15.50;56.30;;;;;;2093840;28;20234;-86
2023/10/09 05:02:37;;;;;;;14.53;2.90;;;15.50;56.30;;;;;;2092735;28;20456;-86
2023/10/09 05:04:42;;;;;;;9.70;3.03;;;15.60;55.40;;;;;;2082768;28;20733;-86
2023/10/09 05:06:54;;;;;;;10.83;2.97;;;15.50;56.40;;;;;;2087114;28;20212;-85
2023/10/09 05:07:55;;;;;;;11.17;3.10;;;15.50;56.90;;;;;;2078433;28;20226;-86
2023/10/09 05:09:07;;;;;;;10.07;2.80;;;15.40;55.60;;;;;;2084385;28;21052;-85
2023/10/09 05:10:17;;;;;;;10.00;2.53;;;15.40;55.50;;;;;;2066684;28;20772;-85
2023/10/09 05:12:18;;;;;;;11.17;2.40;;;15.50;55.10;;;;;;2068017;28;20193;-86
2023/10/09 05:12:56;;;;;;;13.27;2.80;;;15.40;55.70;;;;;;2075992;28;20477;-86
2023/10/09 05:14:12;;;;;;;13.30;2.67;;;15.50;55.10;;;;;;2092794;28;20256;-86
2023/10/09 05:15:14;;;;;;;10.83;3.20;;;15.60;55.00;;;;;;2090906;28;20455;-86
2023/10/09 05:16:25;;;;;;;11.40;3.27;;;15.50;54.70;;;;;;2083301;28;20479;-86
2023/10/09 05:17:25;;;;;;;9.10;2.80;;;15.60;53.50;;;;;;2083031;28;20464;-86
2023/10/09 05:18:27;;;;;;;14.57;2.90;;;15.60;53.20;;;;;;2084763;28;20458;-86
2023/10/09 05:19:41;;;;;;;12.13;3.00;;;15.60;52.80;;;;;;2086317;28;20740;-85
2023/10/09 05:20:55;;;;;;;9.40;2.47;;;15.80;52.60;;;;;;2087827;28;20463;-85
2023/10/09 05:21:58;;;;;;;9.23;2.70;;;15.80;52.00;;;;;;2082922;28;20452;-85
2023/10/09 05:23:14;;;;;;;11.13;2.83;;;15.80;51.70;;;;;;2083296;28;20466;-86
2023/10/09 05:25:30;;;;;;;12.00;3.40;;;15.90;54.60;;;;;;2077873;28;20819;-86
2023/10/09 05:27:52;;;;;;;14.97;3.03;;;15.40;59.70;;;;;;2090804;28;20277;-86
2023/10/09 05:28:58;;;;;;;10.50;2.50;;;15.20;60.50;;;;;;2095962;28;20465;-87
2023/10/09 05:30:16;;;;;;;12.70;3.13;;;15.00;62.10;;;;;;2094421;28;20470;-85
2023/10/09 05:32:48;;;;;;;9.60;2.95;;;14.80;66.80;;;;;;2095254;28;20453;-85
2023/10/09 05:33:52;;;;;;;11.67;2.80;;;14.70;67.80;;;;;;2100418;28;20204;-84
2023/10/09 05:36:14;;;;;;;11.45;2.97;;;14.50;66.50;;;;;;2095522;28;20223;-84
2023/10/09 05:37:22;;;;;;;8.00;2.60;;;14.50;62.50;;;;;;2100317;28;20263;-86
2023/10/09 05:38:23;;;;;;;12.38;3.25;;;14.70;64.10;;;;;;2100896;28;20461;-85
2023/10/09 05:39:41;;;;;;;13.33;3.07;;;14.60;66.50;;;;;;2098687;28;20263;-85
2023/10/09 05:40:43;;;;;;;11.65;2.80;;;14.60;68.30;;;;;;2099248;28;20468;-84
2023/10/09 05:42:57;;;;;;;8.73;2.50;;;14.50;69.60;;;;;;2093912;28;20231;-84
2023/10/09 05:45:20;;;;;;;13.57;2.80;;;14.50;69.30;;;;;;2093196;28;20282;-84
2023/10/09 05:46:07;;;;;;;10.85;2.88;;;14.40;70.80;;;;;;2087640;28;20229;-84
2023/10/09 05:49:24;;;;;;;10.60;2.90;;;14.30;72.20;;;;;;2098705;28;20553;-85
2023/10/09 05:51:42;;;;;;;11.57;3.00;;;14.30;72.30;;;;;;2095807;28;21903;-86
2023/10/09 05:54:11;;;;;;;12.63;2.67;;;14.30;71.80;;;;;;2092852;28;20273;-85
2023/10/09 06:04:17;;;;;;;10.75;2.92;;;14.30;70.60;;;;;;2100747;28;20284;-83
2023/10/09 06:06:44;;;;;;;14.88;4.80;;;14.30;72.20;;;;;;2079920;28;20213;-86
2023/10/09 06:08:04;;;;;;;15.20;3.83;;;14.30;72.10;;;;;;2095481;28;20667;-85
2023/10/09 06:10:20;;;;;;;10.98;4.38;;;14.20;73.80;;;;;;2091178;28;20198;-85
2023/10/09 06:12:33;;;;;;;13.65;5.00;;;14.10;74.10;;;;;;2087836;28;20239;-89
2023/10/09 06:13:46;;;;;;;14.20;3.97;;;14.20;72.70;;;;;;2088737;28;20262;-87
2023/10/09 06:14:50;;;;;;;10.75;3.85;;;14.30;73.50;;;;;;2078627;28;20286;-85
2023/10/09 06:15:51;;;;;;;11.45;3.85;;;14.40;73.30;;;;;;2081427;28;20224;-91
2023/10/09 06:18:32;;;;;;;11.88;4.40;;;14.50;74.30;;;;;;2071852;28;20217;-86
2023/10/09 06:19:40;;;;;;;14.40;4.70;;;14.50;72.30;;;;;;2090916;28;20233;-86
2023/10/09 06:22:56;;;;;;;13.48;4.05;;;14.50;71.20;;;;;;2052289;28;20218;-86
2023/10/09 06:23:50;;;;;;;9.73;3.75;;;14.50;72.90;;;;;;2077204;28;20262;-86
2023/10/09 06:24:54;;;;;;;11.98;3.95;;;14.60;73.70;;;;;;2089024;28;20247;-86
2023/10/09 06:26:05;;;;;;;15.02;3.72;;;14.40;76.10;;;;;;2082825;28;20219;-86
2023/10/09 06:28:06;;;;;;;13.97;3.50;;;14.30;73.90;;;;;;2078662;28;20434;-87
2023/10/09 06:29:30;;;;;;;13.13;4.37;;;14.40;74.90;;;;;;2090850;28;20198;-86
2023/10/09 06:30:36;;;;;;;12.65;5.72;;;14.40;73.20;;;;;;2081491;28;20213;-85
2023/10/09 06:34:15;;;;;;;9.70;3.60;;;14.50;72.90;;;;;;2076985;28;20312;-86